createdAt,value
2023-05-09T00:01:53.398Z,3.60
2023-05-09T00:06:55.555Z,4.00
2023-05-09T00:11:57.635Z,4.30
2023-05-09T00:17:00.332Z,3.90
2023-05-09T00:22:02.515Z,3.90
2023-05-09T00:27:04.806Z,3.50
2023-05-09T00:32:07.031Z,4.10
2023-05-09T00:37:09.393Z,4.10
2023-05-09T00:42:11.668Z,5.60
2023-05-09T00:47:13.848Z,5.60
2023-05-09T00:52:17.154Z,5.20
2023-05-09T00:57:19.445Z,4.50
2023-05-09T01:02:21.847Z,4.50
2023-05-09T01:07:42.965Z,5.20
2023-05-09T01:12:58.538Z,5.20
2023-05-09T01:18:16.193Z,5.80
2023-05-09T01:23:43.684Z,5.10
2023-05-09T01:29:23.457Z,5.70
2023-05-09T01:34:30.353Z,5.30
2023-05-09T01:39:34.170Z,4.00
2023-05-09T01:44:40.760Z,4.60
2023-05-09T01:49:44.377Z,4.10
2023-05-09T01:54:48.020Z,4.10
2023-05-09T01:59:51.112Z,4.20
2023-05-09T02:04:56.772Z,4.20
2023-05-09T02:10:00.205Z,4.20
2023-05-09T02:15:02.570Z,4.40
2023-05-09T02:20:05.576Z,4.50
2023-05-09T02:25:08.739Z,3.80
2023-05-09T02:30:24.695Z,5.00
2023-05-09T02:35:28.555Z,4.10
2023-05-09T02:40:30.899Z,4.40
2023-05-09T02:45:33.599Z,4.90
2023-05-09T02:50:37.820Z,4.40
2023-05-09T03:00:42.806Z,4.90
2023-05-09T03:05:45.196Z,5.10
2023-05-09T03:10:47.486Z,4.80
2023-05-09T03:15:49.685Z,4.90
2023-05-09T03:20:51.850Z,5.30
2023-05-09T03:25:53.934Z,5.10
2023-05-09T03:30:56.122Z,4.50
2023-05-09T03:35:58.405Z,5.50
2023-05-09T03:41:00.487Z,4.50
2023-05-09T03:46:02.564Z,4.90
2023-05-09T03:51:04.765Z,5.50
2023-05-09T03:56:08.283Z,6.80
2023-05-09T04:01:10.350Z,7.00
2023-05-09T04:06:12.640Z,8.70
2023-05-09T04:11:15.343Z,8.60
2023-05-09T04:16:17.557Z,6.10
2023-05-09T04:21:19.809Z,5.80
2023-05-09T04:26:22.196Z,5.40
2023-05-09T04:31:26.131Z,5.00
2023-05-09T04:36:33.427Z,5.60
2023-05-09T04:41:35.611Z,5.10
2023-05-09T04:46:37.775Z,5.70
2023-05-09T04:51:40.285Z,5.00
2023-05-09T04:56:42.709Z,6.80
2023-05-09T05:01:45.228Z,6.70
2023-05-09T05:06:47.352Z,5.50
2023-05-09T05:11:59.570Z,5.70
2023-05-09T05:17:04.112Z,5.20
2023-05-09T05:22:06.310Z,5.50
2023-05-09T05:27:08.348Z,5.60
2023-05-09T05:32:10.803Z,4.60
2023-05-09T05:37:13.151Z,5.90
2023-05-09T05:42:15.151Z,5.40
2023-05-09T05:47:17.219Z,4.70
2023-05-09T05:52:19.807Z,5.50
2023-05-09T05:57:22.103Z,5.70
2023-05-09T06:02:24.311Z,6.50
2023-05-09T06:07:27.275Z,6.40
2023-05-09T06:12:29.470Z,5.80
2023-05-09T06:17:31.689Z,6.00
2023-05-09T06:22:33.934Z,5.30
2023-05-09T06:27:36.021Z,4.90
2023-05-09T06:32:38.328Z,10.60
2023-05-09T06:37:40.484Z,4.20
2023-05-09T06:42:42.776Z,4.10
2023-05-09T06:47:45.204Z,4.00
2023-05-09T06:52:48.061Z,3.30
2023-05-09T06:57:50.558Z,11.20
2023-05-09T07:02:52.766Z,3.60
2023-05-09T07:07:55.664Z,3.30
2023-05-09T07:12:58.178Z,2.90
2023-05-09T07:18:00.459Z,3.70
2023-05-09T07:23:03.656Z,3.40
2023-05-09T07:28:06.656Z,4.60
2023-05-09T07:33:08.944Z,3.30
2023-05-09T07:38:11.139Z,2.70
2023-05-09T07:43:13.495Z,3.10
2023-05-09T07:48:15.610Z,2.90
2023-05-09T07:53:17.859Z,2.80
2023-05-09T07:58:20.045Z,4.10
2023-05-09T08:03:22.288Z,2.70
2023-05-09T08:08:24.643Z,1.90
2023-05-09T08:13:26.837Z,2.10
2023-05-09T08:18:29.088Z,2.70
2023-05-09T08:23:31.278Z,2.50
2023-05-09T08:28:33.366Z,2.80
2023-05-09T08:33:35.753Z,4.30
2023-05-09T08:38:40.082Z,3.20
2023-05-09T08:43:43.085Z,2.40
2023-05-09T08:48:45.475Z,3.10
2023-05-09T08:53:47.866Z,2.90
2023-05-09T08:58:51.177Z,19.10
2023-05-09T09:03:53.662Z,2.40
2023-05-09T09:08:58.530Z,1.90
2023-05-09T09:14:06.394Z,8.50
2023-05-09T09:19:12.614Z,1.70
2023-05-09T09:24:21.146Z,2.80
2023-05-09T09:29:24.251Z,1.90
2023-05-09T09:34:26.432Z,2.10
2023-05-09T09:39:28.615Z,1.70
2023-05-09T09:44:30.799Z,2.20
2023-05-09T09:49:32.986Z,1.90
2023-05-09T09:54:35.175Z,1.90
2023-05-09T09:59:37.353Z,3.60
2023-05-09T10:04:43.531Z,1.40
2023-05-09T10:09:46.122Z,2.00
2023-05-09T10:14:48.525Z,1.80
2023-05-09T10:19:51.117Z,12.00
2023-05-09T10:25:02.353Z,1.50
2023-05-09T10:30:10.636Z,2.20
2023-05-09T10:35:16.736Z,1.50
2023-05-09T10:40:19.602Z,2.00
2023-05-09T10:45:22.520Z,1.60
2023-05-09T10:50:25.580Z,1.40
2023-05-09T10:55:39.470Z,1.40
2023-05-09T11:00:42.398Z,2.20
2023-05-09T11:05:45.471Z,1.70
2023-05-09T11:10:48.273Z,2.50
2023-05-09T11:16:03.318Z,2.20
2023-05-09T11:21:11.383Z,3.20
2023-05-09T11:26:15.518Z,1.60
2023-05-09T11:31:18.912Z,2.80
2023-05-09T11:36:32.996Z,1.80
2023-05-09T11:41:44.138Z,2.10
2023-05-09T11:46:47.713Z,1.70
2023-05-09T11:51:49.992Z,1.80
2023-05-09T11:56:52.171Z,15.40
2023-05-09T12:01:54.672Z,1.80
2023-05-09T12:07:01.459Z,1.80
2023-05-09T12:12:11.827Z,1.70
2023-05-09T12:17:13.827Z,2.30
2023-05-09T12:22:15.995Z,2.10
2023-05-09T12:27:18.791Z,2.40
2023-05-09T12:32:21.384Z,8.70
2023-05-09T12:37:23.568Z,4.70
2023-05-09T12:42:29.259Z,6.60
2023-05-09T12:47:32.132Z,2.00
2023-05-09T12:52:39.758Z,2.20
2023-05-09T12:58:03.168Z,1.70
2023-05-09T13:03:05.648Z,2.20
2023-05-09T13:08:07.906Z,1.60
2023-05-09T13:13:16.050Z,2.90
2023-05-09T13:18:18.215Z,2.20
2023-05-09T13:23:21.830Z,2.40
2023-05-09T13:28:23.917Z,2.50
2023-05-09T13:33:26.727Z,1.70
2023-05-09T13:38:36.163Z,3.30
2023-05-09T13:43:40.504Z,2.10
2023-05-09T13:48:43.889Z,2.50
2023-05-09T13:53:46.411Z,2.10
2023-05-09T14:08:52.959Z,2.00
2023-05-09T14:13:55.665Z,1.90
2023-05-09T14:18:58.046Z,7.50
2023-05-09T14:24:00.169Z,1.40
2023-05-09T14:29:03.864Z,3.30
2023-05-09T14:34:05.839Z,17.20
2023-05-09T14:39:07.912Z,3.80
2023-05-09T14:44:10.217Z,5.20
2023-05-09T14:49:12.481Z,8.20
2023-05-09T14:54:15.227Z,11.40
2023-05-09T14:59:17.670Z,15.40
2023-05-09T15:09:22.141Z,21.20
2023-05-09T15:14:24.325Z,23.70
2023-05-09T15:19:30.620Z,22.90
2023-05-09T15:24:32.900Z,21.80
2023-05-09T15:29:34.849Z,20.20
2023-05-09T15:39:45.032Z,16.60
2023-05-09T15:44:47.064Z,14.30
2023-05-09T15:49:49.150Z,12.40
2023-05-09T15:54:51.256Z,11.40
2023-05-09T15:59:54.734Z,10.60
2023-05-09T16:04:56.717Z,9.20
2023-05-09T16:09:58.800Z,8.90
2023-05-09T16:15:01.407Z,7.40
2023-05-09T16:20:04.002Z,7.60
2023-05-09T16:25:06.894Z,4.80
2023-05-09T16:30:09.698Z,3.90
2023-05-09T16:35:12.076Z,2.80
2023-05-09T16:40:14.926Z,3.00
2023-05-09T16:45:17.264Z,1.90
2023-05-09T16:50:19.653Z,2.00
2023-05-09T16:55:21.843Z,1.70
2023-05-09T17:00:24.129Z,1.70
2023-05-09T17:05:26.213Z,1.90
2023-05-09T17:10:28.287Z,2.00
2023-05-09T17:15:30.783Z,1.50
2023-05-09T17:20:32.970Z,1.80
2023-05-09T17:25:35.277Z,1.90
2023-05-09T17:30:39.038Z,1.40
2023-05-09T17:35:41.157Z,2.20
2023-05-09T17:40:43.953Z,1.50
2023-05-09T17:45:46.318Z,1.10
2023-05-09T17:50:49.449Z,2.50
2023-05-09T17:55:51.735Z,2.00
2023-05-09T18:00:54.843Z,7.40
2023-05-09T18:05:57.243Z,1.90
2023-05-09T18:10:59.408Z,2.20
2023-05-09T18:21:05.011Z,5.30
2023-05-09T18:26:08.088Z,2.30
2023-05-09T18:31:11.941Z,4.60
2023-05-09T18:36:14.750Z,2.60
2023-05-09T18:41:17.025Z,1.80
2023-05-09T18:46:22.134Z,2.00
2023-05-09T18:51:25.182Z,3.70
2023-05-09T18:56:27.363Z,2.70
2023-05-09T19:01:29.633Z,4.60
2023-05-09T19:06:32.066Z,1.90
2023-05-09T19:11:34.234Z,2.50
2023-05-09T19:16:36.433Z,2.50
2023-05-09T19:21:44.739Z,2.30
2023-05-09T19:26:48.513Z,1.80
2023-05-09T19:31:50.744Z,2.20
2023-05-09T19:36:53.032Z,1.80
2023-05-09T19:41:58.346Z,2.40
2023-05-09T19:47:04.811Z,1.90
2023-05-09T19:52:07.099Z,1.70
2023-05-09T19:57:10.070Z,1.80
2023-05-09T20:02:12.460Z,3.20
2023-05-09T20:07:15.977Z,11.10
2023-05-09T20:12:18.218Z,2.30
2023-05-09T20:17:20.338Z,2.00
2023-05-09T20:22:22.531Z,2.60
2023-05-09T20:27:25.933Z,1.60
2023-05-09T20:32:27.918Z,1.80
2023-05-09T20:37:30.513Z,1.60
2023-05-09T20:42:33.006Z,1.40
2023-05-09T20:47:35.119Z,2.10
2023-05-09T20:52:37.369Z,1.50
2023-05-09T20:57:40.273Z,1.90
2023-05-09T21:02:43.635Z,1.90
2023-05-09T21:07:45.771Z,1.90
2023-05-09T21:12:48.118Z,2.00
2023-05-09T21:17:50.564Z,2.00
2023-05-09T21:22:52.728Z,3.00
2023-05-09T21:27:56.037Z,3.30
2023-05-09T21:32:58.373Z,2.70
2023-05-09T21:38:00.613Z,2.20
2023-05-09T21:43:03.410Z,2.00
2023-05-09T21:48:06.055Z,2.50
2023-05-09T21:53:08.396Z,2.30
2023-05-09T21:58:10.580Z,2.00
2023-05-09T22:03:13.084Z,2.20
2023-05-09T22:08:15.455Z,3.40
2023-05-09T22:13:18.093Z,2.50
2023-05-09T22:18:20.234Z,2.60
2023-05-09T22:23:22.317Z,2.30
2023-05-09T22:28:24.499Z,1.80
2023-05-09T22:33:27.093Z,2.10
2023-05-09T22:38:29.893Z,2.70
2023-05-09T22:43:38.857Z,3.10
2023-05-09T22:48:41.945Z,2.20
2023-05-09T22:53:44.025Z,2.50
2023-05-09T22:58:46.212Z,2.30
2023-05-09T23:03:48.392Z,1.80
2023-05-09T23:08:50.477Z,2.40
2023-05-09T23:13:52.966Z,2.30
2023-05-09T23:18:55.151Z,2.60
2023-05-09T23:23:57.642Z,2.70
2023-05-09T23:28:59.934Z,2.80
2023-05-09T23:34:02.216Z,2.60
2023-05-09T23:39:04.502Z,2.50
2023-05-09T23:44:07.195Z,2.30
2023-05-09T23:49:09.281Z,3.20
2023-05-09T23:54:11.460Z,2.40
2023-05-09T23:59:13.751Z,2.70
